Time;durP1;ratioP1;P1;durP2;ratioP2;P2;SDS_P1;SDS_P2;PMS_P1;PMS_P2;Temp;Humidity;BMP_temperature;BMP_pressure;BME280_temperature;BME280_humidity;BME280_pressure;Samples;Min_cycle;Max_cycle;Signal;HPM_P1;HPM_P2
2023/02/09 00:01:13;;;;;;;40.60;18.60;;;-5.00;93.80;;;;;;5047446;28;20415;-62
2023/02/09 00:03:40;;;;;;;40.10;18.63;;;-5.00;93.80;;;;;;5047194;28;20432;-62
2023/02/09 00:06:07;;;;;;;37.97;17.20;;;-5.00;94.20;;;;;;5047554;28;20454;-61
2023/02/09 00:08:34;;;;;;;43.37;19.27;;;-5.00;94.50;;;;;;5057111;28;20492;-63
2023/02/09 00:11:03;;;;;;;47.33;19.70;;;-5.10;95.20;;;;;;5040005;28;20433;-63
2023/02/09 00:13:29;;;;;;;43.30;20.10;;;-5.10;95.50;;;;;;5046754;28;20415;-63
2023/02/09 00:16:00;;;;;;;40.93;18.90;;;-5.10;95.40;;;;;;5042627;28;20879;-62
2023/02/09 00:18:27;;;;;;;39.57;18.53;;;-5.10;95.20;;;;;;5046717;28;20182;-67
2023/02/09 00:21:05;;;;;;;40.83;18.73;;;-5.10;95.10;;;;;;5036845;28;20432;-58
2023/02/09 00:23:33;;;;;;;41.70;17.30;;;-5.10;95.10;;;;;;5021244;28;20814;-60
2023/02/09 00:26:01;;;;;;;45.13;19.03;;;-5.20;95.20;;;;;;5019211;28;21045;-59
2023/02/09 00:28:27;;;;;;;33.00;15.67;;;-5.20;95.00;;;;;;5021542;28;20502;-59
2023/02/09 00:30:53;;;;;;;34.00;16.30;;;-5.30;94.50;;;;;;5028136;28;20524;-61
2023/02/09 00:33:19;;;;;;;33.80;16.53;;;-5.30;94.50;;;;;;5020615;28;20448;-59
2023/02/09 00:35:45;;;;;;;34.20;15.80;;;-5.30;94.70;;;;;;5021315;28;20436;-59
2023/02/09 00:38:11;;;;;;;32.53;16.23;;;-5.40;94.70;;;;;;5025960;28;20518;-59
2023/02/09 00:40:38;;;;;;;36.60;16.73;;;-5.40;94.60;;;;;;5022872;28;20542;-59
2023/02/09 00:43:05;;;;;;;37.10;17.13;;;-5.40;94.60;;;;;;5023353;28;20437;-59
2023/02/09 00:45:31;;;;;;;35.07;15.47;;;-5.50;94.80;;;;;;5024070;28;20441;-61
2023/02/09 00:47:57;;;;;;;36.43;16.00;;;-5.50;95.10;;;;;;5019326;28;20482;-59
2023/02/09 00:50:24;;;;;;;37.43;17.00;;;-5.50;95.40;;;;;;5026590;28;20200;-59
2023/02/09 00:52:49;;;;;;;34.70;17.13;;;-5.50;95.50;;;;;;5026014;28;20428;-59
2023/02/09 00:55:16;;;;;;;40.30;17.10;;;-5.50;95.60;;;;;;5026522;28;20743;-60
2023/02/09 00:57:41;;;;;;;40.17;17.27;;;-5.60;95.50;;;;;;5022112;28;20190;-62
2023/02/09 01:00:08;;;;;;;36.83;16.90;;;-5.60;95.30;;;;;;5047030;28;20586;-64
2023/02/09 01:02:33;;;;;;;38.77;17.43;;;-5.60;95.50;;;;;;5021175;28;20219;-70
2023/02/09 01:04:59;;;;;;;36.87;17.23;;;-5.70;95.40;;;;;;5041318;28;20426;-62
2023/02/09 01:07:25;;;;;;;42.93;17.17;;;-5.70;95.70;;;;;;5043323;28;20252;-63
2023/02/09 01:09:50;;;;;;;44.40;16.90;;;-5.70;95.60;;;;;;5059219;22;20393;-59
2023/02/09 01:12:16;;;;;;;40.80;17.90;;;-5.70;95.80;;;;;;5038760;28;20182;-58
2023/02/09 01:14:42;;;;;;;36.47;17.07;;;-5.70;95.70;;;;;;5024274;28;20181;-59
2023/02/09 01:17:07;;;;;;;38.00;16.93;;;-5.80;95.40;;;;;;5023332;28;20165;-59
2023/02/09 01:19:34;;;;;;;34.80;16.80;;;-5.80;95.10;;;;;;5027964;28;20458;-57
2023/02/09 01:21:59;;;;;;;36.50;15.70;;;-5.80;95.40;;;;;;5025713;28;20703;-59
2023/02/09 01:24:25;;;;;;;43.10;16.97;;;-5.90;95.30;;;;;;5022709;28;20439;-58
2023/02/09 01:26:50;;;;;;;36.50;17.83;;;-5.90;95.30;;;;;;5023307;28;20197;-58
2023/02/09 01:29:18;;;;;;;35.77;16.53;;;-5.90;95.20;;;;;;5023891;28;20209;-59
2023/02/09 01:31:44;;;;;;;32.27;16.60;;;-6.00;95.50;;;;;;5027466;28;20169;-58
2023/02/09 01:34:13;;;;;;;40.27;17.60;;;-6.00;95.50;;;;;;5028163;28;20493;-56
2023/02/09 01:36:38;;;;;;;45.67;18.00;;;-6.00;95.30;;;;;;5026905;28;20431;-58
2023/02/09 01:39:04;;;;;;;41.60;18.20;;;-6.00;95.70;;;;;;5027167;28;20448;-59
2023/02/09 01:41:32;;;;;;;38.87;17.13;;;-6.00;95.80;;;;;;5025191;28;20608;-59
2023/02/09 01:44:02;;;;;;;38.53;17.70;;;-6.00;96.00;;;;;;5023986;28;20530;-58
2023/02/09 01:46:30;;;;;;;39.63;16.03;;;-6.00;95.40;;;;;;5021937;28;20439;-58
2023/02/09 01:49:07;;;;;;;40.45;17.05;;;-6.00;95.30;;;;;;5027032;28;20601;-58
2023/02/09 01:51:39;;;;;;;39.70;16.50;;;-6.00;95.20;;;;;;5021214;28;20283;-58
2023/02/09 01:54:13;;;;;;;35.47;15.80;;;-6.00;95.00;;;;;;5023681;28;20485;-58
2023/02/09 01:56:42;;;;;;;40.05;17.10;;;-6.00;94.80;;;;;;5031028;28;20578;-59
2023/02/09 01:59:09;;;;;;;33.53;15.77;;;-6.10;94.80;;;;;;5031783;28;20202;-58
2023/02/09 02:01:36;;;;;;;39.80;17.65;;;-6.10;94.40;;;;;;5031091;28;21184;-58
2023/02/09 02:04:02;;;;;;;39.90;17.63;;;-6.10;94.30;;;;;;5031468;28;20698;-59
2023/02/09 02:06:28;;;;;;;35.47;15.70;;;-6.20;94.40;;;;;;5026084;28;20177;-58
2023/02/09 02:09:04;;;;;;;34.70;16.00;;;-6.20;94.50;;;;;;5049689;28;20463;-58
2023/02/09 02:11:31;;;;;;;41.37;17.73;;;-6.30;94.60;;;;;;5029977;28;20460;-59
2023/02/09 02:13:57;;;;;;;36.27;15.90;;;-6.30;94.70;;;;;;5031232;28;20808;-58
2023/02/09 02:16:57;;;;;;;37.00;16.57;;;-6.30;94.80;;;;;;5027027;28;20954;-58
2023/02/09 02:19:52;;;;;;;40.88;16.88;;;-6.30;95.30;;;;;;5035878;28;20459;-59
2023/02/09 02:22:55;;;;;;;42.78;18.50;;;-6.40;95.20;;;;;;5029686;28;20176;-59
2023/02/09 02:25:52;;;;;;;34.55;17.10;;;-6.40;95.40;;;;;;5026106;28;20183;-59
2023/02/09 02:28:35;;;;;;;35.50;15.03;;;-6.40;96.30;;;;;;5025513;28;20672;-58
2023/02/09 02:31:25;;;;;;;46.10;16.88;;;-6.50;96.70;;;;;;5022714;28;20462;-58
2023/02/09 02:34:07;;;;;;;37.83;15.73;;;-6.40;96.90;;;;;;5033939;28;20689;-58
2023/02/09 02:37:02;;;;;;;39.10;16.88;;;-6.40;97.10;;;;;;5022082;28;20181;-57
2023/02/09 02:39:44;;;;;;;34.65;14.68;;;-6.40;97.20;;;;;;5036263;28;20202;-59
2023/02/09 02:45:27;;;;;;;40.95;16.52;;;-6.40;96.90;;;;;;5026758;28;20198;-58
2023/02/09 02:48:17;;;;;;;46.10;16.90;;;-6.40;97.70;;;;;;5033050;28;20584;-58
2023/02/09 02:51:09;;;;;;;41.03;17.85;;;-6.40;98.20;;;;;;5029785;28;20200;-58
2023/02/09 02:53:36;;;;;;;41.60;17.30;;;-6.40;98.10;;;;;;5027101;28;20219;-58
2023/02/09 02:56:10;;;;;;;37.08;16.63;;;-6.40;98.10;;;;;;5030242;28;20199;-58
2023/02/09 02:58:39;;;;;;;33.47;15.88;;;-6.30;98.60;;;;;;5028337;28;20231;-58
2023/02/09 03:01:07;;;;;;;40.17;17.13;;;-6.30;99.00;;;;;;5030239;28;20197;-58
2023/02/09 03:03:35;;;;;;;37.90;16.98;;;-6.20;99.00;;;;;;5030530;28;20182;-58
2023/02/09 03:06:04;;;;;;;40.05;15.27;;;-6.10;99.00;;;;;;5027061;28;20181;-58
2023/02/09 03:08:44;;;;;;;36.60;17.63;;;-6.10;98.10;;;;;;5028829;28;20213;-58
2023/02/09 03:11:10;;;;;;;36.10;17.10;;;-6.10;98.20;;;;;;5022761;28;20200;-58
2023/02/09 03:13:44;;;;;;;52.87;18.57;;;-6.00;98.30;;;;;;5028704;28;20204;-60
2023/02/09 03:16:19;;;;;;;41.03;16.50;;;-6.00;97.70;;;;;;5040943;28;20429;-59
2023/02/09 03:19:17;;;;;;;36.55;16.98;;;-6.00;96.60;;;;;;5026878;28;20525;-58
2023/02/09 03:22:07;;;;;;;43.97;16.23;;;-6.00;97.10;;;;;;5027316;28;20273;-58
2023/02/09 03:24:41;;;;;;;36.53;17.50;;;-6.00;96.80;;;;;;5026093;28;20475;-58
2023/02/09 03:27:19;;;;;;;37.00;17.13;;;-6.00;97.50;;;;;;5030537;28;20454;-58
2023/02/09 03:29:48;;;;;;;35.67;16.90;;;-6.00;97.20;;;;;;5026227;28;20470;-58
2023/02/09 03:32:16;;;;;;;38.50;18.20;;;-5.90;97.80;;;;;;5030371;28;21018;-58
2023/02/09 03:34:43;;;;;;;39.72;16.63;;;-5.90;97.80;;;;;;5027213;28;20593;-59
2023/02/09 03:37:09;;;;;;;37.10;16.90;;;-5.90;98.00;;;;;;5028056;28;20171;-58
2023/02/09 03:39:34;;;;;;;39.90;17.63;;;-5.90;97.20;;;;;;5024277;28;20429;-58
2023/02/09 03:42:00;;;;;;;39.53;18.53;;;-5.90;96.60;;;;;;5027394;28;20200;-59
2023/02/09 03:44:25;;;;;;;37.80;17.57;;;-5.90;96.70;;;;;;5026202;28;20225;-58
2023/02/09 03:47:00;;;;;;;37.80;17.10;;;-5.90;96.10;;;;;;5028576;28;20181;-59
2023/02/09 03:49:32;;;;;;;42.33;17.97;;;-5.90;95.90;;;;;;5032536;28;20680;-59
2023/02/09 03:52:01;;;;;;;34.73;16.33;;;-6.00;95.40;;;;;;5028248;28;20830;-59
2023/02/09 03:54:28;;;;;;;43.50;18.75;;;-6.00;95.40;;;;;;5030985;28;20442;-58
2023/02/09 03:56:54;;;;;;;40.47;17.53;;;-6.00;95.20;;;;;;5024980;28;20173;-59
2023/02/09 03:59:20;;;;;;;37.03;16.93;;;-6.00;95.00;;;;;;5041286;28;20431;-58
2023/02/09 04:01:46;;;;;;;43.90;18.88;;;-6.00;94.80;;;;;;5022669;28;20181;-59
2023/02/09 04:04:12;;;;;;;39.57;17.17;;;-6.10;94.70;;;;;;5029603;28;20185;-58
2023/02/09 04:06:38;;;;;;;40.73;18.40;;;-6.10;94.60;;;;;;5026215;28;20409;-58
2023/02/09 04:09:04;;;;;;;37.17;18.03;;;-6.10;94.60;;;;;;5033754;28;21181;-58
2023/02/09 04:11:31;;;;;;;41.78;17.17;;;-6.10;93.60;;;;;;5031158;28;20716;-59
2023/02/09 04:13:56;;;;;;;41.63;17.40;;;-6.20;93.70;;;;;;5028852;28;20209;-58
2023/02/09 04:16:22;;;;;;;38.23;16.87;;;-6.30;94.10;;;;;;5028416;28;20943;-59
2023/02/09 04:18:48;;;;;;;38.00;17.40;;;-6.30;94.20;;;;;;5029125;28;20197;-58
2023/02/09 04:21:13;;;;;;;37.43;15.60;;;-6.40;94.00;;;;;;5022479;28;20871;-58
2023/02/09 04:23:39;;;;;;;42.47;17.17;;;-6.40;94.10;;;;;;5026483;28;20202;-59
2023/02/09 04:26:05;;;;;;;40.63;16.67;;;-6.50;94.60;;;;;;5048915;28;20496;-59
2023/02/09 04:28:31;;;;;;;37.15;17.45;;;-6.50;94.60;;;;;;5033193;28;20783;-58
2023/02/09 04:30:57;;;;;;;48.53;18.30;;;-6.50;95.00;;;;;;5027178;28;20214;-59
2023/02/09 04:33:24;;;;;;;41.37;16.33;;;-6.50;95.30;;;;;;5037242;28;20180;-59
2023/02/09 04:35:50;;;;;;;42.67;18.23;;;-6.60;95.50;;;;;;5026682;28;20275;-58
2023/02/09 04:38:19;;;;;;;38.17;17.60;;;-6.60;95.40;;;;;;5022394;28;20938;-59
2023/02/09 04:40:45;;;;;;;39.20;17.50;;;-6.60;95.60;;;;;;5026806;28;20490;-59
2023/02/09 04:43:11;;;;;;;55.33;18.45;;;-6.60;95.70;;;;;;5041065;28;20207;-58
2023/02/09 04:45:38;;;;;;;43.10;18.03;;;-6.60;95.50;;;;;;5022385;28;20782;-59
2023/02/09 04:48:04;;;;;;;37.50;16.77;;;-6.60;95.50;;;;;;5030079;28;20250;-59
2023/02/09 04:50:29;;;;;;;37.03;16.60;;;-6.60;95.80;;;;;;5026866;28;20443;-59
2023/02/09 04:52:55;;;;;;;41.03;17.37;;;-6.60;96.00;;;;;;5022797;28;22117;-55
2023/02/09 04:55:20;;;;;;;42.53;16.27;;;-6.60;95.90;;;;;;5026229;28;20196;-54
2023/02/09 05:00:30;;;;;;;37.13;16.85;;;-6.70;95.70;;;;;;5011808;28;20209;-55
2023/02/09 05:02:56;;;;;;;37.67;17.80;;;-6.70;96.00;;;;;;5025409;28;20570;-53
2023/02/09 05:05:21;;;;;;;43.20;18.07;;;-6.70;95.60;;;;;;5021147;28;20185;-54
2023/02/09 05:07:47;;;;;;;36.07;17.13;;;-6.70;95.30;;;;;;5027105;28;20183;-56
2023/02/09 05:10:13;;;;;;;40.80;16.80;;;-6.70;95.60;;;;;;5021408;28;20214;-58
2023/02/09 05:12:38;;;;;;;36.63;17.40;;;-6.60;95.60;;;;;;5027585;28;20176;-59
2023/02/09 05:15:04;;;;;;;39.63;17.47;;;-6.60;95.40;;;;;;5022314;28;20259;-60
2023/02/09 05:17:31;;;;;;;42.57;17.87;;;-6.60;95.80;;;;;;5039585;28;20177;-60
2023/02/09 05:19:57;;;;;;;39.70;17.90;;;-6.60;95.60;;;;;;5008457;28;20439;-60
2023/02/09 05:22:23;;;;;;;41.53;16.97;;;-6.60;95.50;;;;;;5018753;28;20191;-61
2023/02/09 05:24:48;;;;;;;46.63;19.67;;;-6.60;95.70;;;;;;5025630;28;20435;-59
2023/02/09 05:27:14;;;;;;;39.80;16.40;;;-6.60;95.40;;;;;;5020333;28;20181;-57
2023/02/09 05:29:40;;;;;;;38.37;17.13;;;-6.60;95.10;;;;;;5022799;28;20216;-58
2023/02/09 05:32:05;;;;;;;35.63;16.70;;;-6.60;94.60;;;;;;5016977;28;20734;-59
2023/02/09 05:34:31;;;;;;;45.63;17.40;;;-6.70;94.70;;;;;;5023615;28;20180;-59
2023/02/09 05:36:57;;;;;;;40.37;16.47;;;-6.70;94.70;;;;;;5030529;28;20637;-59
2023/02/09 05:39:22;;;;;;;43.20;16.73;;;-6.70;94.80;;;;;;5021840;28;23039;-58
2023/02/09 05:44:32;;;;;;;36.17;16.83;;;-6.70;94.60;;;;;;5023233;28;20253;-59
2023/02/09 05:46:57;;;;;;;35.10;15.10;;;-6.70;94.90;;;;;;5027954;28;20641;-59
2023/02/09 05:49:23;;;;;;;40.40;17.30;;;-6.70;95.00;;;;;;5034804;28;20259;-58
2023/02/09 05:51:49;;;;;;;36.53;16.73;;;-6.70;95.10;;;;;;5019285;28;20647;-59
2023/02/09 05:54:14;;;;;;;38.20;18.27;;;-6.70;94.70;;;;;;5017397;28;20180;-59
2023/02/09 05:56:40;;;;;;;47.50;17.57;;;-6.80;94.30;;;;;;5023275;28;20184;-59
2023/02/09 05:59:06;;;;;;;41.23;16.97;;;-6.80;94.10;;;;;;5020602;28;20583;-56
2023/02/09 06:01:31;;;;;;;45.87;19.30;;;-6.80;94.20;;;;;;5022630;28;20201;-59
2023/02/09 06:03:57;;;;;;;35.87;16.80;;;-6.80;93.90;;;;;;5015878;28;20602;-59
2023/02/09 06:06:22;;;;;;;41.00;18.17;;;-6.80;94.00;;;;;;5031273;28;20198;-59
2023/02/09 06:08:48;;;;;;;39.03;17.73;;;-6.80;94.00;;;;;;5030338;28;20201;-59
2023/02/09 06:11:14;;;;;;;37.37;17.00;;;-6.80;93.90;;;;;;5021686;28;20207;-59
2023/02/09 06:13:39;;;;;;;49.50;20.80;;;-6.80;93.70;;;;;;5032640;28;20248;-59
2023/02/09 06:16:05;;;;;;;40.70;18.40;;;-6.80;93.70;;;;;;5025948;28;20168;-59
2023/02/09 06:18:31;;;;;;;45.37;18.37;;;-6.90;93.60;;;;;;5023224;28;20222;-60
2023/02/09 06:20:56;;;;;;;44.17;20.00;;;-6.90;93.60;;;;;;5028522;28;20428;-59
2023/02/09 06:23:22;;;;;;;40.27;18.50;;;-6.90;93.60;;;;;;5039468;28;20185;-59
2023/02/09 06:25:51;;;;;;;49.63;18.10;;;-7.00;93.90;;;;;;5029871;28;20214;-59
2023/02/09 06:28:18;;;;;;;41.72;17.73;;;-7.00;93.80;;;;;;5036668;28;20407;-59
2023/02/09 06:30:45;;;;;;;42.13;19.05;;;-7.00;93.90;;;;;;5035483;28;20203;-59
2023/02/09 06:33:11;;;;;;;44.40;18.60;;;-7.00;94.00;;;;;;5029906;28;20184;-59
2023/02/09 06:35:36;;;;;;;42.40;18.27;;;-7.00;94.00;;;;;;5023801;28;20180;-59
2023/02/09 06:38:02;;;;;;;41.53;17.63;;;-7.00;93.90;;;;;;5028278;28;20622;-59
2023/02/09 06:40:28;;;;;;;41.00;17.90;;;-7.10;93.70;;;;;;5026966;28;20196;-60
2023/02/09 06:42:53;;;;;;;36.40;16.90;;;-7.10;93.80;;;;;;5027137;28;20200;-59
2023/02/09 06:45:19;;;;;;;44.83;19.57;;;-7.10;94.10;;;;;;5027616;28;20229;-59
2023/02/09 06:47:45;;;;;;;42.50;19.40;;;-7.10;94.30;;;;;;5028166;28;20187;-59
2023/02/09 06:50:12;;;;;;;42.00;19.15;;;-7.10;94.30;;;;;;5028029;28;20679;-59
2023/02/09 06:52:38;;;;;;;39.05;18.08;;;-7.10;94.40;;;;;;5026066;28;20549;-58
2023/02/09 06:55:04;;;;;;;36.63;18.23;;;-7.10;94.60;;;;;;5029434;28;20184;-59
2023/02/09 06:57:30;;;;;;;42.17;18.05;;;-7.10;94.20;;;;;;5026967;28;20552;-59
2023/02/09 06:59:56;;;;;;;45.43;18.00;;;-7.10;94.10;;;;;;5029328;28;20203;-59
2023/02/09 07:02:21;;;;;;;47.00;18.90;;;-7.10;93.90;;;;;;5019266;28;20421;-59
2023/02/09 07:04:47;;;;;;;45.77;17.93;;;-7.10;94.20;;;;;;5018960;28;20236;-60
2023/02/09 07:07:13;;;;;;;41.90;18.53;;;-7.10;94.20;;;;;;5030255;28;20176;-59
2023/02/09 07:09:39;;;;;;;49.42;18.88;;;-7.10;94.50;;;;;;5028608;28;20208;-59
2023/02/09 07:12:05;;;;;;;44.10;19.33;;;-7.00;94.50;;;;;;5029666;28;20179;-58
2023/02/09 07:14:31;;;;;;;42.30;19.47;;;-7.00;94.80;;;;;;5031059;28;20178;-59
2023/02/09 07:16:56;;;;;;;60.53;22.90;;;-7.00;94.30;;;;;;5026302;28;20402;-59
2023/02/09 07:19:22;;;;;;;54.70;24.13;;;-7.00;93.60;;;;;;5029628;28;20666;-59
2023/02/09 07:21:48;;;;;;;51.37;21.70;;;-7.00;93.40;;;;;;5029517;28;20169;-59
2023/02/09 07:24:20;;;;;;;46.80;20.00;;;-7.00;92.90;;;;;;5024524;28;20173;-62
2023/02/09 07:26:45;;;;;;;45.58;20.55;;;-7.00;93.00;;;;;;5027605;28;20200;-58
2023/02/09 07:29:11;;;;;;;47.03;19.80;;;-7.00;93.80;;;;;;5034437;28;20234;-59
2023/02/09 07:31:37;;;;;;;46.10;19.60;;;-7.00;94.30;;;;;;5030142;28;20687;-58
2023/02/09 07:34:02;;;;;;;54.50;20.07;;;-6.90;94.20;;;;;;5037890;28;20223;-58
2023/02/09 07:36:28;;;;;;;56.80;21.23;;;-6.90;94.20;;;;;;5029715;28;20172;-59
2023/02/09 07:38:54;;;;;;;48.93;22.57;;;-6.90;94.60;;;;;;5031687;28;20699;-59
2023/02/09 07:41:24;;;;;;;47.58;19.10;;;-6.80;94.40;;;;;;5023912;28;20229;-59
2023/02/09 07:43:50;;;;;;;53.75;18.88;;;-6.80;94.10;;;;;;5025530;28;20263;-59
2023/02/09 07:46:18;;;;;;;47.63;19.95;;;-6.80;94.50;;;;;;5029448;28;20195;-59
2023/02/09 07:48:44;;;;;;;45.88;18.63;;;-6.80;95.20;;;;;;5034987;28;20251;-59
2023/02/09 07:51:18;;;;;;;51.87;20.13;;;-6.80;95.60;;;;;;5031882;28;20657;-59
2023/02/09 07:53:44;;;;;;;48.75;20.65;;;-6.70;96.30;;;;;;5029191;28;20605;-59
2023/02/09 07:56:10;;;;;;;49.08;21.75;;;-6.70;97.10;;;;;;5028366;28;20173;-58
2023/02/09 07:58:36;;;;;;;43.70;20.50;;;-6.50;97.40;;;;;;5035089;28;20237;-59
2023/02/09 08:01:07;;;;;;;45.53;19.97;;;-6.40;96.90;;;;;;5026006;28;20445;-59
2023/02/09 08:03:34;;;;;;;47.28;21.05;;;-6.30;96.90;;;;;;5031427;28;20430;-60
2023/02/09 08:06:32;;;;;;;45.50;19.55;;;-6.20;97.50;;;;;;5036043;28;20278;-60
2023/02/09 08:09:01;;;;;;;53.15;21.63;;;-6.00;97.40;;;;;;4993560;28;20236;-60
2023/02/09 08:11:39;;;;;;;53.35;19.45;;;-5.90;96.60;;;;;;5027565;28;20287;-60
2023/02/09 08:14:08;;;;;;;48.50;21.17;;;-5.70;96.00;;;;;;5029699;28;20199;-60
2023/02/09 08:16:35;;;;;;;58.08;20.75;;;-5.60;94.30;;;;;;5023804;28;20268;-60
2023/02/09 08:19:10;;;;;;;52.40;21.23;;;-5.50;94.10;;;;;;5029125;28;20173;-60
2023/02/09 08:21:39;;;;;;;44.13;20.05;;;-5.50;93.80;;;;;;5029466;28;20199;-60
2023/02/09 08:24:06;;;;;;;45.23;21.10;;;-5.50;93.30;;;;;;5029191;28;20183;-60
2023/02/09 08:26:32;;;;;;;54.37;22.43;;;-5.50;93.80;;;;;;5025233;28;20440;-60
2023/02/09 08:28:58;;;;;;;62.77;21.87;;;-5.50;94.00;;;;;;5023025;28;20454;-60
2023/02/09 08:31:23;;;;;;;46.70;20.33;;;-5.40;94.00;;;;;;5028785;28;20197;-59
2023/02/09 08:33:50;;;;;;;50.47;21.43;;;-5.40;94.40;;;;;;5024823;28;20445;-60
2023/02/09 08:36:18;;;;;;;54.93;23.10;;;-5.30;94.80;;;;;;5030975;28;20178;-60
2023/02/09 08:38:44;;;;;;;52.87;22.50;;;-5.30;94.90;;;;;;5025385;28;20573;-60
2023/02/09 08:41:12;;;;;;;55.77;23.10;;;-5.20;94.00;;;;;;5027920;28;20513;-60
2023/02/09 08:43:38;;;;;;;63.30;24.43;;;-5.20;94.10;;;;;;5028124;28;20432;-60
2023/02/09 08:46:11;;;;;;;51.50;22.90;;;-5.20;94.60;;;;;;5029301;28;21124;-60
2023/02/09 08:48:40;;;;;;;54.00;23.50;;;-5.10;93.80;;;;;;5032832;28;20459;-60
2023/02/09 08:51:07;;;;;;;50.00;21.13;;;-5.10;93.60;;;;;;5023467;28;20500;-60
2023/02/09 08:53:33;;;;;;;51.87;23.17;;;-5.00;94.50;;;;;;5029457;28;20439;-60
2023/02/09 08:55:58;;;;;;;50.60;23.10;;;-4.90;94.70;;;;;;5026550;28;20463;-60
2023/02/09 08:58:25;;;;;;;67.93;23.50;;;-4.90;95.70;;;;;;5022719;28;20430;-60
2023/02/09 09:00:58;;;;;;;54.43;23.87;;;-4.80;96.30;;;;;;5028226;28;20201;-61
2023/02/09 09:03:30;;;;;;;57.27;23.03;;;-4.70;96.40;;;;;;5031177;28;20411;-60
2023/02/09 09:06:06;;;;;;;60.07;25.50;;;-4.50;96.50;;;;;;5034529;28;20428;-61
2023/02/09 09:08:33;;;;;;;54.50;24.67;;;-4.40;96.20;;;;;;5025316;28;20420;-60
2023/02/09 09:10:59;;;;;;;58.70;24.83;;;-4.30;96.70;;;;;;5040315;28;20457;-60
2023/02/09 09:13:24;;;;;;;58.27;24.90;;;-4.20;96.80;;;;;;5031747;28;20446;-60
2023/02/09 09:15:51;;;;;;;61.00;25.30;;;-4.10;97.10;;;;;;5024654;28;20960;-60
2023/02/09 09:18:17;;;;;;;61.30;25.33;;;-4.00;97.30;;;;;;5040599;28;20189;-60
2023/02/09 09:20:43;;;;;;;62.63;24.87;;;-3.80;96.80;;;;;;5033734;28;20453;-60
2023/02/09 09:23:09;;;;;;;65.53;26.00;;;-3.70;96.40;;;;;;5033284;28;20418;-60
2023/02/09 09:25:36;;;;;;;64.83;26.67;;;-3.60;96.50;;;;;;5031265;28;20583;-60
2023/02/09 09:28:02;;;;;;;58.43;25.90;;;-3.40;95.90;;;;;;5029652;28;20457;-60
2023/02/09 09:30:27;;;;;;;68.53;26.10;;;-3.30;96.30;;;;;;5032019;28;21050;-60
2023/02/09 09:32:54;;;;;;;63.47;27.27;;;-3.20;96.60;;;;;;5032359;28;20259;-61
2023/02/09 09:35:19;;;;;;;63.70;25.90;;;-3.10;96.40;;;;;;5038287;28;20173;-60
2023/02/09 09:37:45;;;;;;;61.63;26.90;;;-3.00;96.80;;;;;;5035224;28;20999;-60
2023/02/09 09:40:31;;;;;;;63.97;28.23;;;-2.90;96.50;;;;;;5033051;28;20204;-61
2023/02/09 09:43:01;;;;;;;60.33;28.70;;;-2.70;96.70;;;;;;5028724;28;20539;-62
2023/02/09 09:45:30;;;;;;;72.77;27.67;;;-2.60;96.60;;;;;;5031132;28;20465;-60
2023/02/09 09:47:56;;;;;;;67.00;28.57;;;-2.40;96.20;;;;;;5032727;28;20502;-60
2023/02/09 09:50:26;;;;;;;69.53;29.17;;;-2.30;95.50;;;;;;5035130;28;20637;-60
2023/02/09 09:53:00;;;;;;;69.67;28.83;;;-2.20;94.70;;;;;;5032757;28;20178;-60
2023/02/09 09:55:29;;;;;;;61.60;28.97;;;-2.10;95.30;;;;;;5027967;28;20439;-61
2023/02/09 09:57:59;;;;;;;61.77;27.77;;;-1.90;94.60;;;;;;5027962;28;20432;-60
2023/02/09 10:00:34;;;;;;;72.03;28.23;;;-1.80;94.80;;;;;;5038195;28;20454;-60
2023/02/09 10:02:59;;;;;;;67.30;29.87;;;-1.70;94.30;;;;;;5025591;28;20431;-60
2023/02/09 10:05:36;;;;;;;69.37;29.03;;;-1.50;94.70;;;;;;5034101;28;20818;-60
2023/02/09 10:08:11;;;;;;;77.80;30.37;;;-1.40;93.80;;;;;;5027217;28;20176;-60
2023/02/09 10:10:37;;;;;;;68.90;29.37;;;-1.30;92.30;;;;;;5024656;28;20471;-60
2023/02/09 10:13:08;;;;;;;75.37;30.23;;;-1.10;92.60;;;;;;5031926;28;20472;-60
2023/02/09 10:15:35;;;;;;;73.93;28.73;;;-1.00;93.30;;;;;;5027547;28;20437;-60
2023/02/09 10:18:01;;;;;;;74.83;30.37;;;-0.80;92.40;;;;;;5024263;28;20433;-61
2023/02/09 10:20:49;;;;;;;65.70;30.40;;;-0.60;92.30;;;;;;5035172;28;20460;-60
2023/02/09 10:23:21;;;;;;;65.87;28.97;;;-0.40;91.50;;;;;;5028986;28;20431;-60
2023/02/09 10:26:02;;;;;;;68.60;29.37;;;-0.20;90.70;;;;;;5040203;28;21114;-61
2023/02/09 10:28:31;;;;;;;64.53;28.50;;;0.00;90.00;;;;;;5027961;28;20443;-60
2023/02/09 10:31:00;;;;;;;68.70;26.73;;;0.10;87.70;;;;;;5031436;28;20783;-61
2023/02/09 10:33:29;;;;;;;69.20;28.07;;;0.30;87.70;;;;;;5024822;28;20565;-60
2023/02/09 10:36:05;;;;;;;63.07;28.60;;;0.50;85.10;;;;;;5030304;28;20438;-61
2023/02/09 10:38:32;;;;;;;63.27;27.40;;;0.60;85.40;;;;;;5028816;28;20447;-60
2023/02/09 10:40:59;;;;;;;75.30;27.43;;;0.80;81.90;;;;;;5022686;28;20444;-61
2023/02/09 10:43:31;;;;;;;61.60;28.50;;;1.00;82.60;;;;;;5047202;28;20444;-61
2023/02/09 10:46:00;;;;;;;57.00;27.50;;;1.20;81.30;;;;;;5026655;28;20444;-61
2023/02/09 10:48:27;;;;;;;57.70;25.80;;;1.30;78.20;;;;;;5035185;28;20424;-61
2023/02/09 10:50:53;;;;;;;50.63;24.97;;;1.50;77.30;;;;;;5029255;28;20957;-61
2023/02/09 10:53:28;;;;;;;60.83;25.60;;;1.60;73.60;;;;;;5025114;28;20434;-60
2023/02/09 10:56:22;;;;;;;53.67;24.00;;;1.70;73.40;;;;;;5028270;28;20169;-61
2023/02/09 10:58:57;;;;;;;76.43;26.67;;;1.90;72.10;;;;;;5029272;28;20990;-61
2023/02/09 11:01:30;;;;;;;59.77;26.07;;;2.00;69.70;;;;;;5032861;28;20464;-61
2023/02/09 11:04:02;;;;;;;54.03;24.57;;;2.10;70.50;;;;;;5024374;28;21190;-61
2023/02/09 11:06:42;;;;;;;52.97;24.40;;;2.20;70.30;;;;;;5029074;28;20813;-60
2023/02/09 11:09:15;;;;;;;60.37;27.10;;;2.40;68.80;;;;;;5033541;28;20461;-60
2023/02/09 11:11:42;;;;;;;65.63;27.77;;;2.50;68.40;;;;;;5021349;28;20985;-60
2023/02/09 11:14:14;;;;;;;55.37;25.40;;;2.60;67.10;;;;;;5026159;28;20961;-61
2023/02/09 11:16:43;;;;;;;47.93;23.97;;;2.70;65.40;;;;;;5019321;28;20435;-60
2023/02/09 11:19:35;;;;;;;58.23;25.00;;;2.80;65.10;;;;;;5032591;28;20469;-61
2023/02/09 11:22:31;;;;;;;55.20;23.90;;;2.80;64.50;;;;;;5029416;28;20456;-61
2023/02/09 11:25:24;;;;;;;51.87;23.57;;;2.90;64.90;;;;;;5025359;28;20461;-61
2023/02/09 11:28:27;;;;;;;64.00;22.93;;;3.10;63.80;;;;;;5025422;28;20531;-60
2023/02/09 11:31:23;;;;;;;47.10;23.67;;;3.20;63.30;;;;;;5026927;28;20500;-62
2023/02/09 11:33:54;;;;;;;42.67;20.73;;;3.40;63.30;;;;;;5026918;28;20426;-60
2023/02/09 11:36:38;;;;;;;49.50;22.37;;;3.50;60.80;;;;;;5025901;28;20513;-61
2023/02/09 11:39:28;;;;;;;45.07;23.37;;;3.60;60.30;;;;;;5031376;28;20440;-61
2023/02/09 11:45:01;;;;;;;45.13;23.10;;;3.70;59.80;;;;;;5029159;28;20480;-61
2023/02/09 11:47:44;;;;;;;48.13;22.97;;;3.90;60.40;;;;;;5026993;28;20438;-61
2023/02/09 11:50:39;;;;;;;51.93;22.47;;;4.00;59.40;;;;;;5021162;28;20497;-62
2023/02/09 11:53:42;;;;;;;42.00;20.77;;;4.30;59.00;;;;;;4994024;28;20798;-61
2023/02/09 11:56:11;;;;;;;48.80;22.50;;;4.50;58.40;;;;;;5025983;28;20457;-60
2023/02/09 11:58:55;;;;;;;44.80;23.00;;;4.70;57.80;;;;;;5023559;28;20529;-61
2023/02/09 12:01:52;;;;;;;44.17;20.57;;;4.90;56.80;;;;;;5029116;28;20433;-58
2023/02/09 12:04:27;;;;;;;47.07;23.07;;;5.00;55.50;;;;;;5028277;28;20433;-57
2023/02/09 12:07:23;;;;;;;43.93;21.30;;;5.10;55.60;;;;;;5017906;28;20436;-61
2023/02/09 12:09:58;;;;;;;37.37;19.60;;;5.20;54.90;;;;;;5018492;28;20466;-60
2023/02/09 12:12:29;;;;;;;44.23;22.20;;;5.50;54.80;;;;;;5034752;28;20494;-62
2023/02/09 12:15:16;;;;;;;44.23;22.07;;;5.90;54.50;;;;;;5022477;28;20723;-62
2023/02/09 12:18:00;;;;;;;40.20;20.97;;;6.20;52.60;;;;;;5014029;28;20441;-63
2023/02/09 12:20:43;;;;;;;41.13;21.97;;;6.60;52.90;;;;;;5017932;28;20458;-62
2023/02/09 12:23:30;;;;;;;38.47;20.33;;;6.80;51.70;;;;;;5014536;28;20802;-63
2023/02/09 12:26:01;;;;;;;40.07;20.93;;;6.90;51.20;;;;;;5025401;28;20836;-62
2023/02/09 12:28:26;;;;;;;41.57;22.03;;;7.00;50.90;;;;;;5020805;28;20517;-62
2023/02/09 12:30:52;;;;;;;39.00;21.10;;;7.00;50.40;;;;;;5020881;28;20545;-61
2023/02/09 12:33:22;;;;;;;39.27;22.10;;;7.10;50.90;;;;;;5023486;28;20179;-62
2023/02/09 12:36:09;;;;;;;40.20;21.73;;;7.40;51.00;;;;;;5023155;28;20572;-62
2023/02/09 12:38:50;;;;;;;41.37;23.03;;;7.70;49.60;;;;;;5022494;28;20426;-62
2023/02/09 12:41:32;;;;;;;39.53;22.17;;;8.10;49.50;;;;;;5020765;28;20509;-62
2023/02/09 12:44:10;;;;;;;39.30;22.60;;;8.40;49.20;;;;;;5021537;28;20431;-61
2023/02/09 12:46:50;;;;;;;40.80;23.67;;;9.00;48.20;;;;;;5022732;28;20423;-63
2023/02/09 12:49:18;;;;;;;35.80;22.13;;;9.40;47.00;;;;;;5016691;28;20553;-60
2023/02/09 12:51:53;;;;;;;40.90;23.20;;;9.70;46.20;;;;;;5021787;28;20876;-60
2023/02/09 12:54:43;;;;;;;40.27;24.10;;;10.00;44.50;;;;;;5021550;28;20445;-60
2023/02/09 12:57:14;;;;;;;37.47;22.73;;;10.40;43.50;;;;;;5016524;28;20438;-61